Scotland, South Dakota
Current Conditions -  °F | °C
As of 7:35 PM on Tuesday 21 Oct 2014 (Local Time) from KYKN Reporting Station
Clear Clear  
Wind Chill: 66°   Ceiling: Unl
Heat Index: 66°   Visibility: 10mi
Dew Point: 45°   Wind: 13mph
Humidity: 46%   Direction: 140°SE
Pressure: 29.96"   Gusts: NA
Location:  43.15°N, 97.72°W
Report Text: KYKN 220035Z AUTO 14011KT 10SM CLR 19/07 A2996 RMK AO1
Loading
Personal Weather Stations






























Interactive Weather Map
Tropical Storm Tracking
New forecast layout! Learn more

10-Day Weather Forecast

Advertisements
Track Severe Weather on mobile